Time;durP1;ratioP1;P1;durP2;ratioP2;P2;SDS_P1;SDS_P2;PMS_P1;PMS_P2;Temp;Humidity;BMP_temperature;BMP_pressure;BME280_temperature;BME280_humidity;BME280_pressure;Samples;Min_cycle;Max_cycle;Signal;HPM_P1;HPM_P2
2023/08/27 00:03:03;;;;;;;11.23;5.07;;;;;;;-140.66;100.00;55571.53;5118799;28;20026;-69
2023/08/27 00:06:47;;;;;;;8.05;5.10;;;;;;;-140.66;100.00;55571.53;5119097;28;20102;-69
2023/08/27 00:10:32;;;;;;;7.82;5.03;;;;;;;-140.66;100.00;55571.53;5117357;28;20422;-68
2023/08/27 00:14:16;;;;;;;6.93;5.38;;;;;;;-140.66;100.00;55571.53;5117285;28;20031;-69
2023/08/27 00:18:00;;;;;;;8.55;5.15;;;;;;;-140.66;100.00;55571.53;5117312;28;20031;-70
2023/08/27 00:21:45;;;;;;;10.60;5.65;;;;;;;-140.66;100.00;55571.53;5116573;28;20035;-68
2023/08/27 00:25:29;;;;;;;9.57;5.90;;;;;;;-140.66;100.00;55571.53;5117706;28;20029;-69
2023/08/27 00:29:18;;;;;;;10.25;5.75;;;;;;;-140.66;100.00;55571.53;5118599;28;20036;-68
2023/08/27 00:33:03;;;;;;;7.22;6.00;;;;;;;-140.66;100.00;55571.53;5116698;28;20055;-69
2023/08/27 00:36:47;;;;;;;6.95;4.95;;;;;;;-140.66;100.00;55571.53;5117423;28;20040;-70
2023/08/27 00:40:31;;;;;;;11.50;5.90;;;;;;;-140.66;100.00;55571.53;5117387;28;20031;-69
2023/08/27 00:44:16;;;;;;;10.57;5.88;;;;;;;-140.66;100.00;55571.53;5117705;28;20049;-69
2023/08/27 00:48:00;;;;;;;6.75;5.30;;;;;;;-140.66;100.00;55571.53;5130530;27;20489;-70
2023/08/27 00:51:46;;;;;;;7.65;5.50;;;;;;;-140.66;100.00;55571.53;5116976;28;20028;-69
2023/08/27 00:55:31;;;;;;;8.38;5.60;;;;;;;-140.66;100.00;55571.53;5116243;28;20039;-69
2023/08/27 00:59:16;;;;;;;7.35;4.95;;;;;;;-140.66;100.00;55571.53;5117940;28;20547;-69
2023/08/27 01:03:00;;;;;;;7.47;5.45;;;;;;;-140.66;100.00;55571.53;5116381;28;20027;-69
2023/08/27 01:06:45;;;;;;;17.02;5.95;;;;;;;-140.66;100.00;55571.53;5130622;27;20019;-69
2023/08/27 01:10:32;;;;;;;7.60;5.50;;;;;;;-140.66;100.00;55571.53;5116713;28;20427;-70
2023/08/27 01:14:27;;;;;;;7.60;5.38;;;;;;;-140.66;100.00;55571.53;5117087;28;20023;-69
2023/08/27 01:18:14;;;;;;;8.40;5.45;;;;;;;-140.66;100.00;55571.53;5117576;28;20024;-69
2023/08/27 01:22:13;;;;;;;11.15;5.70;;;;;;;-140.66;100.00;55571.53;5117091;28;20034;-69
2023/08/27 01:26:00;;;;;;;7.57;5.38;;;;;;;-140.66;100.00;55571.53;5116620;28;20080;-69
2023/08/27 01:30:24;;;;;;;7.32;5.30;;;;;;;-140.66;100.00;55571.53;5115629;28;20031;-69
2023/08/27 01:34:12;;;;;;;9.10;5.35;;;;;;;-140.66;100.00;55571.53;5034132;28;20025;-70
2023/08/27 01:37:56;;;;;;;8.05;5.55;;;;;;;-140.66;100.00;55571.53;5047875;28;20024;-69
2023/08/27 01:41:41;;;;;;;6.60;5.43;;;;;;;-140.66;100.00;55571.53;5117289;28;20055;-69
2023/08/27 01:45:25;;;;;;;9.85;6.13;;;;;;;-140.66;100.00;55571.53;5117447;28;20114;-69
2023/08/27 01:49:09;;;;;;;6.07;5.43;;;;;;;-140.66;100.00;55571.53;5115495;28;20048;-69
2023/08/27 01:52:53;;;;;;;5.90;5.30;;;;;;;-140.66;100.00;55571.53;5117205;28;20035;-68
2023/08/27 01:56:37;;;;;;;7.05;5.10;;;;;;;-140.66;100.00;55571.53;5115560;28;20051;-69
2023/08/27 02:00:22;;;;;;;10.25;5.45;;;;;;;-140.66;100.00;55571.53;5109802;28;20038;-70
2023/08/27 02:04:06;;;;;;;7.35;5.78;;;;;;;-140.66;100.00;55571.53;5116157;28;20027;-68
2023/08/27 02:07:50;;;;;;;6.43;5.43;;;;;;;-140.66;100.00;55571.53;5115953;28;20073;-69
2023/08/27 02:11:34;;;;;;;10.93;5.80;;;;;;;-140.66;100.00;55571.53;5115784;28;20054;-69
2023/08/27 02:15:19;;;;;;;8.30;6.18;;;;;;;-140.66;100.00;55571.53;5114800;28;20362;-71
2023/08/27 02:19:03;;;;;;;8.60;6.38;;;;;;;-140.66;100.00;55571.53;5115147;28;20020;-69
2023/08/27 02:22:47;;;;;;;10.93;6.22;;;;;;;-140.66;100.00;55571.53;5116353;28;20027;-70
2023/08/27 02:26:31;;;;;;;9.90;6.30;;;;;;;-140.66;100.00;55571.53;5114683;28;20031;-69
2023/08/27 02:30:16;;;;;;;10.38;6.40;;;;;;;-140.66;100.00;55571.53;5113850;28;20165;-69
2023/08/27 02:34:00;;;;;;;9.75;6.28;;;;;;;-140.66;100.00;55571.53;5115576;28;20111;-69
2023/08/27 02:37:44;;;;;;;12.70;6.65;;;;;;;-140.66;100.00;55571.53;5114506;28;20457;-69
2023/08/27 02:41:29;;;;;;;11.65;6.65;;;;;;;-140.66;100.00;55571.53;5129268;27;20028;-69
2023/08/27 02:45:13;;;;;;;11.07;7.43;;;;;;;-140.66;100.00;55571.53;5115822;28;20020;-69
2023/08/27 02:48:57;;;;;;;8.75;6.88;;;;;;;-140.66;100.00;55571.53;5114154;28;20480;-69
2023/08/27 02:52:41;;;;;;;9.43;7.10;;;;;;;-140.66;100.00;55571.53;5127944;27;20035;-68
2023/08/27 02:56:25;;;;;;;11.05;7.03;;;;;;;-140.66;100.00;55571.53;5114773;28;20456;-68
2023/08/27 03:00:10;;;;;;;13.93;7.68;;;;;;;-140.66;100.00;55571.53;5114509;28;20032;-69
2023/08/27 03:03:55;;;;;;;9.52;6.90;;;;;;;-140.66;100.00;55571.53;5114870;28;20168;-70
2023/08/27 03:07:39;;;;;;;8.18;6.82;;;;;;;-140.66;100.00;55571.53;5114554;28;20035;-68
2023/08/27 03:11:23;;;;;;;26.02;7.50;;;;;;;-140.66;100.00;55571.53;5128030;27;20106;-69
2023/08/27 03:15:07;;;;;;;10.85;6.65;;;;;;;-140.66;100.00;55571.53;5113879;28;20031;-69
2023/08/27 03:18:52;;;;;;;9.52;6.47;;;;;;;-140.66;100.00;55571.53;5127453;27;20027;-70
2023/08/27 03:22:36;;;;;;;9.90;6.85;;;;;;;-140.66;100.00;55571.53;5114494;28;20031;-69
2023/08/27 03:26:21;;;;;;;9.35;6.45;;;;;;;-140.66;100.00;55571.53;5114806;28;20140;-70
2023/08/27 03:30:05;;;;;;;7.93;6.65;;;;;;;-140.66;100.00;55571.53;5113974;28;20142;-70
2023/08/27 03:33:49;;;;;;;8.40;6.70;;;;;;;-140.66;100.00;55571.53;5113734;28;20024;-68
2023/08/27 03:37:34;;;;;;;12.23;6.30;;;;;;;-140.66;100.00;55571.53;5114488;28;20062;-69
2023/08/27 03:41:18;;;;;;;12.10;6.43;;;;;;;-140.66;100.00;55571.53;5113234;28;20141;-69
2023/08/27 03:45:02;;;;;;;10.15;6.60;;;;;;;-140.66;100.00;55571.53;5113966;28;20028;-69
2023/08/27 03:48:46;;;;;;;10.98;7.30;;;;;;;-140.66;100.00;55571.53;5113218;28;20044;-69
2023/08/27 03:52:30;;;;;;;9.35;6.47;;;;;;;-140.66;100.00;55571.53;5113286;28;20031;-70
2023/08/27 03:56:15;;;;;;;9.10;6.75;;;;;;;-140.66;100.00;55571.53;5115149;28;20027;-69
2023/08/27 03:59:59;;;;;;;10.63;6.80;;;;;;;-140.66;100.00;55571.53;5113159;28;20055;-70
2023/08/27 04:03:43;;;;;;;8.25;6.43;;;;;;;-140.66;100.00;55571.53;5113776;28;20318;-68
2023/08/27 04:07:28;;;;;;;11.40;6.72;;;;;;;-140.66;100.00;55571.53;5114254;28;20115;-70
2023/08/27 04:11:12;;;;;;;9.80;7.07;;;;;;;-140.66;100.00;55571.53;5114361;28;20472;-69
2023/08/27 04:14:57;;;;;;;8.50;6.57;;;;;;;-140.66;100.00;55571.53;5114194;28;20023;-69
2023/08/27 04:18:41;;;;;;;12.73;7.10;;;;;;;-140.66;100.00;55571.53;5113542;28;20041;-70
2023/08/27 04:22:25;;;;;;;10.55;6.93;;;;;;;-140.66;100.00;55571.53;5113494;28;20024;-70
2023/08/27 04:26:12;;;;;;;14.10;7.28;;;;;;;-140.66;100.00;55571.53;5113208;28;20016;-70
2023/08/27 04:29:57;;;;;;;13.68;7.13;;;;;;;-140.66;100.00;55571.53;5127146;28;20058;-70
2023/08/27 04:33:41;;;;;;;12.90;7.60;;;;;;;-140.66;100.00;55571.53;5114303;28;20035;-69
2023/08/27 04:37:25;;;;;;;11.15;6.93;;;;;;;-140.66;100.00;55571.53;5113926;28;20030;-68
2023/08/27 04:41:09;;;;;;;8.98;7.10;;;;;;;-140.66;100.00;55571.53;5112884;28;20119;-69
2023/08/27 04:44:54;;;;;;;10.45;7.43;;;;;;;-140.66;100.00;55571.53;5113489;28;20100;-69
2023/08/27 04:48:39;;;;;;;11.00;7.93;;;;;;;-140.66;100.00;55571.53;5117268;28;20058;-69
2023/08/27 04:52:24;;;;;;;12.63;7.88;;;;;;;-140.66;100.00;55571.53;5117978;28;20031;-69
2023/08/27 04:56:08;;;;;;;11.82;7.40;;;;;;;-140.66;100.00;55571.53;5117129;28;20024;-69
2023/08/27 04:59:54;;;;;;;11.30;7.75;;;;;;;-140.66;100.00;55571.53;5115707;28;20028;-69
2023/08/27 05:03:38;;;;;;;11.25;7.07;;;;;;;-140.66;100.00;55571.53;5118177;28;20088;-69
2023/08/27 05:07:23;;;;;;;9.55;6.75;;;;;;;-140.66;100.00;55571.53;5117365;28;20106;-69
2023/08/27 05:11:07;;;;;;;12.32;7.35;;;;;;;-140.66;100.00;55571.53;5116857;28;20353;-69
2023/08/27 05:14:51;;;;;;;9.75;7.35;;;;;;;-140.66;100.00;55571.53;5117387;28;20057;-69
2023/08/27 05:18:36;;;;;;;9.75;7.38;;;;;;;-140.66;100.00;55571.53;5116699;28;20039;-69
2023/08/27 05:22:20;;;;;;;8.90;7.30;;;;;;;-140.66;100.00;55571.53;5129652;27;20063;-70
2023/08/27 05:26:05;;;;;;;12.50;7.07;;;;;;;-140.66;100.00;55571.53;5116422;28;20023;-73
2023/08/27 05:29:49;;;;;;;10.80;6.78;;;;;;;-140.66;100.00;55571.53;5115499;28;20024;-72
2023/08/27 05:33:33;;;;;;;8.55;6.68;;;;;;;-140.66;100.00;55571.53;5116948;28;20030;-68
2023/08/27 05:37:17;;;;;;;9.85;6.38;;;;;;;-140.66;100.00;55571.53;5115744;28;20031;-69
2023/08/27 05:41:02;;;;;;;12.13;7.20;;;;;;;-140.66;100.00;55571.53;5116274;28;20365;-69
2023/08/27 05:44:46;;;;;;;9.32;6.65;;;;;;;-140.66;100.00;55571.53;5116567;28;20015;-70
2023/08/27 05:48:31;;;;;;;8.43;6.50;;;;;;;-140.66;100.00;55571.53;5116616;28;20443;-69
2023/08/27 05:52:15;;;;;;;8.18;5.70;;;;;;;-140.66;100.00;55571.53;5114938;28;20499;-69
2023/08/27 05:55:59;;;;;;;8.95;6.00;;;;;;;-140.66;100.00;55571.53;5115292;28;20093;-69
2023/08/27 05:59:43;;;;;;;8.93;6.10;;;;;;;-140.66;100.00;55571.53;5115567;28;20027;-69
2023/08/27 06:03:28;;;;;;;11.52;6.18;;;;;;;-140.66;100.00;55571.53;5115874;28;20368;-69
2023/08/27 06:07:12;;;;;;;7.18;5.80;;;;;;;-140.66;100.00;55571.53;5115056;28;20035;-69
2023/08/27 06:10:56;;;;;;;6.80;5.45;;;;;;;-140.66;100.00;55571.53;5116144;28;20110;-71
2023/08/27 06:14:40;;;;;;;8.25;6.15;;;;;;;-140.66;100.00;55571.53;5115491;28;20039;-70
2023/08/27 06:18:25;;;;;;;9.38;5.78;;;;;;;-140.66;100.00;55571.53;5115867;28;20023;-69
2023/08/27 06:22:09;;;;;;;8.27;5.47;;;;;;;-140.66;100.00;55571.53;5114770;28;20493;-70
2023/08/27 06:25:54;;;;;;;13.52;5.18;;;;;;;-140.66;100.00;55571.53;5115642;28;20037;-70
2023/08/27 06:29:38;;;;;;;5.90;4.80;;;;;;;-140.66;100.00;55571.53;5115878;28;20354;-70
2023/08/27 06:33:24;;;;;;;8.43;5.20;;;;;;;-140.66;100.00;55571.53;5114429;28;20445;-69
2023/08/27 06:37:08;;;;;;;8.05;4.28;;;;;;;-140.66;100.00;55571.53;5114679;28;20396;-70
2023/08/27 06:40:52;;;;;;;6.70;4.43;;;;;;;-140.66;100.00;55571.53;5115143;28;20031;-69
2023/08/27 06:44:36;;;;;;;6.18;4.53;;;;;;;-140.66;100.00;55571.53;5128258;27;20091;-69
2023/08/27 06:48:21;;;;;;;5.13;4.15;;;;;;;-140.66;100.00;55571.53;5115020;28;20078;-70
2023/08/27 06:52:05;;;;;;;4.60;4.10;;;;;;;-140.66;100.00;55571.53;5115461;28;20029;-72
2023/08/27 06:55:49;;;;;;;9.52;4.53;;;;;;;-140.66;100.00;55571.53;5115524;28;20119;-70
2023/08/27 06:59:34;;;;;;;10.35;4.40;;;;;;;-140.66;100.00;55571.53;5114164;28;20092;-69
2023/08/27 07:03:19;;;;;;;8.80;4.68;;;;;;;-140.66;100.00;55571.53;5113899;28;20080;-71
2023/08/27 07:07:03;;;;;;;6.47;4.32;;;;;;;-140.66;100.00;55571.53;5114798;28;20057;-70
2023/08/27 07:10:48;;;;;;;6.88;3.97;;;;;;;-140.66;100.00;55571.53;5113862;28;20023;-69
2023/08/27 07:14:32;;;;;;;8.52;4.40;;;;;;;-140.66;100.00;55571.53;5114019;28;20035;-70
2023/08/27 07:18:16;;;;;;;6.28;4.72;;;;;;;-140.66;100.00;55571.53;5114673;28;20073;-69
2023/08/27 07:22:00;;;;;;;5.47;4.05;;;;;;;-140.66;100.00;55571.53;5114330;28;20365;-69
2023/08/27 07:25:44;;;;;;;9.40;3.90;;;;;;;-140.66;100.00;55571.53;5114660;28;20030;-70
2023/08/27 07:29:29;;;;;;;7.28;4.60;;;;;;;-140.66;100.00;55571.53;5113674;28;20027;-69
2023/08/27 07:33:14;;;;;;;7.38;4.55;;;;;;;-140.66;100.00;55571.53;5114304;28;20030;-69
2023/08/27 07:36:58;;;;;;;8.75;4.30;;;;;;;-140.66;100.00;55571.53;5114653;28;20338;-70
2023/08/27 07:40:43;;;;;;;6.80;4.25;;;;;;;-140.66;100.00;55571.53;5113908;28;20365;-69
2023/08/27 07:44:27;;;;;;;6.03;4.07;;;;;;;-140.66;100.00;55571.53;5113497;28;20102;-68
2023/08/27 07:48:11;;;;;;;8.52;4.20;;;;;;;-140.66;100.00;55571.53;5114762;28;20047;-69
2023/08/27 07:51:57;;;;;;;5.13;3.80;;;;;;;-140.66;100.00;55571.53;5114191;28;20400;-70
2023/08/27 07:55:41;;;;;;;5.15;3.72;;;;;;;-140.66;100.00;55571.53;5114700;28;20038;-70
2023/08/27 07:59:25;;;;;;;5.05;4.22;;;;;;;-140.66;100.00;55571.53;5114272;28;20441;-70
2023/08/27 08:03:09;;;;;;;5.75;3.90;;;;;;;-140.66;100.00;55571.53;5113596;28;20031;-69
2023/08/27 08:06:53;;;;;;;4.18;3.65;;;;;;;-140.66;100.00;55571.53;5114308;28;20468;-70
2023/08/27 08:10:38;;;;;;;5.57;4.35;;;;;;;-140.66;100.00;55571.53;5114653;28;20028;-70
2023/08/27 08:14:22;;;;;;;6.80;4.35;;;;;;;-140.66;100.00;55571.53;5113010;28;20120;-71
2023/08/27 08:18:07;;;;;;;7.55;4.05;;;;;;;-140.66;100.00;55571.53;5113834;28;20381;-70
2023/08/27 08:21:51;;;;;;;9.13;4.00;;;;;;;-140.66;100.00;55571.53;5117127;28;20097;-70
2023/08/27 08:25:37;;;;;;;10.98;4.20;;;;;;;-140.66;100.00;55571.53;5117636;28;20111;-70
2023/08/27 08:29:22;;;;;;;5.28;3.70;;;;;;;-140.66;100.00;55571.53;5117022;28;20436;-69
2023/08/27 08:33:06;;;;;;;7.10;4.20;;;;;;;-140.66;100.00;55571.53;5117131;28;20407;-72
2023/08/27 08:36:50;;;;;;;6.05;3.50;;;;;;;-140.66;100.00;55571.53;5118721;28;20092;-71
2023/08/27 08:40:38;;;;;;;10.77;3.70;;;;;;;-140.66;100.00;55571.53;5117837;28;20102;-71
2023/08/27 08:44:47;;;;;;;10.93;3.75;;;;;;;-140.66;100.00;55571.53;5117666;28;20024;-69
2023/08/27 08:48:41;;;;;;;5.03;3.67;;;;;;;-140.66;100.00;55571.53;5116985;28;20062;-70
2023/08/27 08:52:27;;;;;;;4.82;3.47;;;;;;;-140.66;100.00;55571.53;5116364;28;20039;-70
2023/08/27 08:56:14;;;;;;;5.15;3.60;;;;;;;-140.66;100.00;55571.53;5117756;28;20023;-71
2023/08/27 08:59:59;;;;;;;6.10;3.75;;;;;;;-140.66;100.00;55571.53;5117716;28;20031;-70
2023/08/27 09:03:44;;;;;;;4.95;3.75;;;;;;;-140.66;100.00;55571.53;5116932;28;20365;-70
2023/08/27 09:07:32;;;;;;;4.13;3.28;;;;;;;-140.66;100.00;55571.53;5117639;28;20038;-70
2023/08/27 09:11:19;;;;;;;5.90;3.50;;;;;;;-140.66;100.00;55571.53;5117420;28;20505;-70
2023/08/27 09:15:04;;;;;;;4.38;3.70;;;;;;;-140.66;100.00;55571.53;5116388;28;20425;-70
2023/08/27 09:18:48;;;;;;;7.25;3.88;;;;;;;-140.66;100.00;55571.53;5117197;28;20107;-70
2023/08/27 09:22:35;;;;;;;6.20;3.85;;;;;;;-140.66;100.00;55571.53;5116649;28;20476;-70
2023/08/27 09:26:20;;;;;;;7.68;3.75;;;;;;;-140.66;100.00;55571.53;5114882;28;20032;-70
2023/08/27 09:30:07;;;;;;;16.00;3.75;;;;;;;-140.66;100.00;55571.53;5115670;28;20015;-71
2023/08/27 09:33:57;;;;;;;6.55;3.63;;;;;;;-140.66;100.00;55571.53;5129734;27;20106;-69
2023/08/27 09:37:42;;;;;;;6.38;3.92;;;;;;;-140.66;100.00;55571.53;5115383;28;20028;-70
2023/08/27 09:41:26;;;;;;;7.32;3.90;;;;;;;-140.66;100.00;55571.53;5116995;28;20102;-70
2023/08/27 09:45:16;;;;;;;6.40;3.92;;;;;;;-140.66;100.00;55571.53;5116331;28;20031;-71
2023/08/27 09:49:01;;;;;;;6.18;3.80;;;;;;;-140.66;100.00;55571.53;5115828;28;20065;-70
2023/08/27 09:52:45;;;;;;;3.97;3.58;;;;;;;-140.66;100.00;55571.53;5116637;28;20043;-71
2023/08/27 09:56:36;;;;;;;7.47;3.80;;;;;;;-140.66;100.00;55571.53;5115324;28;20366;-70
2023/08/27 10:00:22;;;;;;;6.03;3.55;;;;;;;-140.66;100.00;55571.53;5116644;28;20028;-70
2023/08/27 10:04:09;;;;;;;4.72;3.20;;;;;;;-140.66;100.00;55571.53;5115307;28;20062;-70
2023/08/27 10:07:57;;;;;;;4.50;3.30;;;;;;;-140.66;100.00;55571.53;5115134;28;20106;-71
2023/08/27 10:11:43;;;;;;;4.38;3.00;;;;;;;-140.66;100.00;55571.53;5115551;28;20027;-70
2023/08/27 10:15:28;;;;;;;3.38;3.08;;;;;;;-140.66;100.00;55571.53;5115390;28;20028;-70
2023/08/27 10:19:12;;;;;;;4.40;3.60;;;;;;;-140.66;100.00;55571.53;5116857;28;20369;-69
2023/08/27 10:22:57;;;;;;;3.95;3.28;;;;;;;-140.66;100.00;55571.53;5115012;28;20096;-71
2023/08/27 10:26:42;;;;;;;6.88;3.60;;;;;;;-140.66;100.00;55571.53;5116262;28;20027;-71
2023/08/27 10:30:27;;;;;;;4.38;3.38;;;;;;;-140.66;100.00;55571.53;5115943;28;20024;-70
2023/08/27 10:34:11;;;;;;;6.15;3.33;;;;;;;-140.66;100.00;55571.53;5113708;28;20453;-70
2023/08/27 10:38:02;;;;;;;4.53;3.60;;;;;;;-140.66;100.00;55571.53;5114825;28;20024;-70
2023/08/27 10:41:48;;;;;;;6.65;4.03;;;;;;;-140.66;100.00;55571.53;5115919;28;20020;-70
2023/08/27 10:45:37;;;;;;;6.50;3.78;;;;;;;-140.66;100.00;55571.53;5113810;28;20070;-70
2023/08/27 10:49:23;;;;;;;9.02;3.72;;;;;;;-140.66;100.00;55571.53;5115684;28;20441;-70
2023/08/27 10:53:18;;;;;;;7.57;3.65;;;;;;;-140.66;100.00;55571.53;5113940;28;20023;-71
2023/08/27 10:57:22;;;;;;;5.57;2.90;;;;;;;-140.66;100.00;55571.53;5113879;28;20027;-70
2023/08/27 11:01:09;;;;;;;4.70;3.65;;;;;;;-140.66;100.00;55571.53;5116004;28;20441;-70
2023/08/27 11:04:54;;;;;;;6.78;3.55;;;;;;;-140.66;100.00;55571.53;5114395;28;20028;-70
2023/08/27 11:08:40;;;;;;;6.50;3.40;;;;;;;-140.66;100.00;55571.53;5114405;28;20019;-70
2023/08/27 11:12:25;;;;;;;4.88;3.47;;;;;;;-140.66;100.00;55571.53;5114501;28;20023;-70
2023/08/27 11:16:12;;;;;;;10.70;3.63;;;;;;;-140.66;100.00;55571.53;5117448;28;20031;-71
2023/08/27 11:19:57;;;;;;;5.47;3.30;;;;;;;-140.66;100.00;55571.53;5114180;28;20070;-70
2023/08/27 11:24:10;;;;;;;4.30;3.10;;;;;;;-140.66;100.00;55571.53;5115465;28;20046;-72
2023/08/27 11:28:01;;;;;;;6.20;3.70;;;;;;;-140.66;100.00;55571.53;5113492;28;20165;-71
2023/08/27 11:31:46;;;;;;;8.90;3.40;;;;;;;-140.66;100.00;55571.53;5115103;28;20524;-72
2023/08/27 11:35:36;;;;;;;4.90;3.20;;;;;;;-140.66;100.00;55571.53;5113923;28;20063;-69
2023/08/27 11:39:22;;;;;;;3.83;3.22;;;;;;;-140.66;100.00;55571.53;5114758;28;20027;-69
2023/08/27 11:43:07;;;;;;;7.53;3.58;;;;;;;-140.66;100.00;55571.53;5114154;28;20365;-69
2023/08/27 11:46:51;;;;;;;7.00;3.80;;;;;;;-140.66;100.00;55571.53;5128600;27;20019;-70
2023/08/27 11:50:39;;;;;;;7.82;3.10;;;;;;;-140.66;100.00;55571.53;5113137;28;20457;-71
2023/08/27 11:54:28;;;;;;;4.80;3.40;;;;;;;-140.66;100.00;55571.53;5115083;28;20032;-70
2023/08/27 11:58:15;;;;;;;11.80;3.67;;;;;;;-140.66;100.00;55571.53;5118280;28;20429;-69
2023/08/27 12:01:59;;;;;;;5.65;3.42;;;;;;;-140.66;100.00;55571.53;5131884;27;20035;-69
2023/08/27 12:05:44;;;;;;;7.40;3.45;;;;;;;-140.66;100.00;55571.53;5118572;28;20015;-70
2023/08/27 12:09:34;;;;;;;7.65;3.72;;;;;;;-140.66;100.00;55571.53;5117874;28;20146;-70
2023/08/27 12:13:23;;;;;;;4.50;3.13;;;;;;;-140.66;100.00;55571.53;5118432;28;20042;-70
2023/08/27 12:17:08;;;;;;;8.07;3.67;;;;;;;-140.66;100.00;55571.53;5118777;28;20080;-70
2023/08/27 12:20:52;;;;;;;7.55;3.40;;;;;;;-140.66;100.00;55571.53;5117057;28;20523;-70
2023/08/27 12:24:41;;;;;;;7.38;3.40;;;;;;;-140.66;100.00;55571.53;5117579;28;20031;-70
2023/08/27 12:28:26;;;;;;;6.47;3.00;;;;;;;-140.66;100.00;55571.53;5118484;28;20030;-70
2023/08/27 12:32:20;;;;;;;9.32;3.47;;;;;;;-140.66;100.00;55571.53;5117530;28;20110;-72
2023/08/27 12:36:07;;;;;;;4.63;3.47;;;;;;;-140.66;100.00;55571.53;5117788;28;20031;-70
2023/08/27 12:39:53;;;;;;;3.60;3.17;;;;;;;-140.66;100.00;55571.53;5118249;28;20040;-70
2023/08/27 12:43:38;;;;;;;4.80;3.60;;;;;;;-140.66;100.00;55571.53;5117893;28;20066;-70
2023/08/27 12:47:23;;;;;;;5.82;3.30;;;;;;;-140.66;100.00;55571.53;5116939;28;20460;-70
2023/08/27 12:51:07;;;;;;;4.43;3.33;;;;;;;-140.66;100.00;55571.53;5117899;28;20521;-71
2023/08/27 12:54:51;;;;;;;5.68;3.20;;;;;;;-140.66;100.00;55571.53;5118857;28;20065;-70
2023/08/27 12:58:35;;;;;;;8.88;3.53;;;;;;;-140.66;100.00;55571.53;5121163;28;20084;-71
2023/08/27 13:02:20;;;;;;;6.20;3.65;;;;;;;-140.66;100.00;55571.53;5121323;28;20028;-70
2023/08/27 13:06:04;;;;;;;7.35;3.70;;;;;;;-140.66;100.00;55571.53;5120831;28;20031;-70
2023/08/27 13:09:49;;;;;;;10.15;3.72;;;;;;;-140.66;100.00;55571.53;5123227;28;20023;-70
2023/08/27 13:13:33;;;;;;;5.43;3.30;;;;;;;-140.66;100.00;55571.53;5122942;28;20027;-70
2023/08/27 13:17:17;;;;;;;3.80;3.30;;;;;;;-140.66;100.00;55571.53;5123137;28;20030;-71
2023/08/27 13:21:01;;;;;;;7.13;3.60;;;;;;;-140.66;100.00;55571.53;5116476;28;20110;-70
2023/08/27 13:24:46;;;;;;;5.53;3.30;;;;;;;-140.66;100.00;55571.53;5130523;27;20031;-70
2023/08/27 13:28:30;;;;;;;10.73;3.83;;;;;;;-140.66;100.00;55571.53;5115986;28;20030;-70
2023/08/27 13:32:14;;;;;;;6.53;3.28;;;;;;;-140.66;100.00;55571.53;5116157;28;20032;-70
2023/08/27 13:35:59;;;;;;;6.30;3.42;;;;;;;-140.66;100.00;55571.53;5116572;28;20031;-70
2023/08/27 13:39:43;;;;;;;10.52;4.10;;;;;;;-140.66;100.00;55571.53;5115904;28;20099;-71
2023/08/27 13:43:27;;;;;;;8.55;3.38;;;;;;;-140.66;100.00;55571.53;5116084;28;20076;-70
2023/08/27 13:47:11;;;;;;;7.57;3.70;;;;;;;-140.66;100.00;55571.53;5116318;28;20035;-70
2023/08/27 13:50:55;;;;;;;6.60;3.65;;;;;;;-140.66;100.00;55571.53;5116151;28;20043;-69
2023/08/27 13:54:40;;;;;;;9.02;3.60;;;;;;;-140.66;100.00;55571.53;5115697;28;20353;-69
2023/08/27 13:58:24;;;;;;;5.85;3.40;;;;;;;-140.66;100.00;55571.53;5115833;28;20024;-70
2023/08/27 14:02:09;;;;;;;11.00;3.85;;;;;;;-140.66;100.00;55571.53;5115670;28;20024;-71
2023/08/27 14:05:54;;;;;;;4.63;3.25;;;;;;;-140.66;100.00;55571.53;5115652;28;20104;-71
2023/08/27 14:09:38;;;;;;;7.68;3.55;;;;;;;-140.66;100.00;55571.53;5116284;28;20119;-71
2023/08/27 14:13:22;;;;;;;9.05;3.47;;;;;;;-140.66;100.00;55571.53;5128913;27;20039;-71
2023/08/27 14:17:06;;;;;;;7.70;3.42;;;;;;;-140.66;100.00;55571.53;5115904;28;20050;-70
2023/08/27 14:20:50;;;;;;;9.20;3.55;;;;;;;-140.66;100.00;55571.53;5116491;28;20030;-70
2023/08/27 14:24:35;;;;;;;9.25;3.65;;;;;;;-140.66;100.00;55571.53;5115885;28;20118;-69
2023/08/27 14:28:19;;;;;;;10.02;3.75;;;;;;;-140.66;100.00;55571.53;5115079;28;20453;-71
2023/08/27 14:32:04;;;;;;;6.13;3.05;;;;;;;-140.66;100.00;55571.53;5128662;27;20164;-71
2023/08/27 14:35:48;;;;;;;9.23;4.10;;;;;;;-140.66;100.00;55571.53;5116453;28;20051;-71
2023/08/27 14:39:33;;;;;;;6.50;3.60;;;;;;;-140.66;100.00;55571.53;5114636;28;20042;-69
2023/08/27 14:43:17;;;;;;;7.20;3.88;;;;;;;-140.66;100.00;55571.53;5116251;28;20110;-72
2023/08/27 14:47:01;;;;;;;8.63;4.50;;;;;;;-140.66;100.00;55571.53;5115075;28;20622;-71
2023/08/27 14:50:45;;;;;;;7.45;3.70;;;;;;;-140.66;100.00;55571.53;5128539;27;20051;-70
2023/08/27 14:54:29;;;;;;;4.63;3.20;;;;;;;-140.66;100.00;55571.53;5115140;28;20031;-71
2023/08/27 14:58:14;;;;;;;7.15;3.42;;;;;;;-140.66;100.00;55571.53;5114554;28;20457;-71
2023/08/27 15:01:58;;;;;;;7.53;3.35;;;;;;;-140.66;100.00;55571.53;5115696;28;20032;-71
2023/08/27 15:05:42;;;;;;;12.18;4.03;;;;;;;-140.66;100.00;55571.53;5114222;28;20035;-70
2023/08/27 15:09:27;;;;;;;6.13;3.90;;;;;;;-140.66;100.00;55571.53;5114699;28;20365;-70
2023/08/27 15:13:15;;;;;;;13.85;4.00;;;;;;;-140.66;100.00;55571.53;5114558;28;20032;-70
2023/08/27 15:16:59;;;;;;;7.72;3.63;;;;;;;-140.66;100.00;55571.53;5114258;28;20019;-70
2023/08/27 15:20:43;;;;;;;13.20;4.35;;;;;;;-140.66;100.00;55571.53;5114211;28;20411;-70
2023/08/27 15:24:28;;;;;;;9.85;4.05;;;;;;;-140.66;100.00;55571.53;5115536;28;20019;-69
2023/08/27 15:28:12;;;;;;;6.28;3.70;;;;;;;-140.66;100.00;55571.53;5115230;28;20074;-70
2023/08/27 15:31:57;;;;;;;9.38;3.70;;;;;;;-140.66;100.00;55571.53;5114729;28;20054;-70
2023/08/27 15:35:41;;;;;;;7.95;3.50;;;;;;;-140.66;100.00;55571.53;5114441;28;20427;-70
2023/08/27 15:39:25;;;;;;;5.25;4.07;;;;;;;-140.66;100.00;55571.53;5114140;28;20088;-70
2023/08/27 15:43:30;;;;;;;8.43;4.07;;;;;;;-140.66;100.00;55571.53;5114578;28;20035;-70
2023/08/27 15:47:14;;;;;;;10.65;4.25;;;;;;;-140.66;100.00;55571.53;5115426;28;20027;-69
2023/08/27 15:50:59;;;;;;;8.43;3.90;;;;;;;-140.66;100.00;55571.53;5115133;28;20048;-70
2023/08/27 15:54:43;;;;;;;11.23;4.05;;;;;;;-140.66;100.00;55571.53;5126884;28;20024;-71
2023/08/27 15:58:27;;;;;;;6.75;3.85;;;;;;;-140.66;100.00;55571.53;5127887;28;20020;-70
2023/08/27 16:02:11;;;;;;;6.18;3.58;;;;;;;-140.66;100.00;55571.53;5113911;28;20380;-71
2023/08/27 16:05:55;;;;;;;7.45;3.65;;;;;;;-140.66;100.00;55571.53;5114816;28;20020;-70
2023/08/27 16:09:40;;;;;;;5.72;4.03;;;;;;;-140.66;100.00;55571.53;5114456;28;20026;-71
2023/08/27 16:13:24;;;;;;;10.05;3.90;;;;;;;-140.66;100.00;55571.53;5113794;28;20073;-70
2023/08/27 16:17:08;;;;;;;12.63;3.97;;;;;;;-140.66;100.00;55571.53;5114165;28;20058;-70
2023/08/27 16:20:52;;;;;;;9.80;3.90;;;;;;;-140.66;100.00;55571.53;5113554;28;20024;-70
2023/08/27 16:24:37;;;;;;;11.25;3.97;;;;;;;-140.66;100.00;55571.53;5113298;28;20060;-76
2023/08/27 16:28:21;;;;;;;5.60;3.80;;;;;;;-140.66;100.00;55571.53;5113091;28;20028;-70
2023/08/27 16:32:14;;;;;;;5.97;3.95;;;;;;;-140.66;100.00;55571.53;5113076;28;20024;-70
2023/08/27 16:35:59;;;;;;;4.97;3.50;;;;;;;-140.66;100.00;55571.53;5113706;28;20020;-70
2023/08/27 16:39:45;;;;;;;5.45;4.07;;;;;;;-140.66;100.00;55571.53;5114094;28;20034;-70
2023/08/27 16:43:29;;;;;;;11.10;4.15;;;;;;;-140.66;100.00;55571.53;5118447;28;20049;-70
2023/08/27 16:47:14;;;;;;;7.80;4.18;;;;;;;-140.66;100.00;55571.53;5116807;28;20034;-70
2023/08/27 16:50:58;;;;;;;6.90;4.10;;;;;;;-140.66;100.00;55571.53;5116227;28;20036;-70
2023/08/27 16:54:42;;;;;;;6.25;3.90;;;;;;;-140.66;100.00;55571.53;5118128;28;20031;-69
2023/08/27 16:58:26;;;;;;;6.53;4.40;;;;;;;-140.66;100.00;55571.53;5116912;28;20088;-70
2023/08/27 17:02:11;;;;;;;8.27;4.00;;;;;;;-140.66;100.00;55571.53;5116496;28;20456;-70